Погода Чехина 2 недели

Минская область, Белоруссия

19 июля-01 августа
  • 19июля
    Сегодня
    +14°
    +24°
    Практически безоблачно
    ВремяПогодаТемператураВлажностьДавлениеВетер, м/сВероятность осадков
    00:00Ясно и безоблачно+18°C76 %750 мм3.6 м/с2 %
    03:00Облачно с прояснениями+16°C77 %750 мм3.8 м/с2 %
    06:00Ясно и безоблачно+14°C88 %750 мм3.4 м/с2 %
    09:00Пасмурно, сплошная облачность+18°C74 %750 мм4.5 м/с2 %
    12:00Небольшая облачность+21°C58 %749 мм4.5 м/с5 %
    15:00Практически безоблачно+23°C46 %749 мм4.6 м/с6 %
    18:00Ясно и безоблачно+24°C43 %748 мм4.7 м/с5 %
    21:00Ясно и безоблачно+20°C56 %747 мм2.8 м/с2 %
  • 20июля
    Суббота
    +13°
    +23°
    Облачно с прояснениями
    ВремяПогодаТемператураВлажностьДавлениеВетер, м/сВероятность осадков
    00:00Ясно и безоблачно+17°C64 %747 мм3.7 м/с2 %
    03:00Ясно и безоблачно+16°C78 %747 мм3.5 м/с2 %
    06:00Ясно и безоблачно+14°C88 %747 мм2.7 м/с2 %
    09:00Практически безоблачно+18°C75 %746 мм2.6 м/с2 %
    12:00Облачно с прояснениями+21°C60 %746 мм3.8 м/с21 %
    15:00Облачно с прояснениями+22°C52 %745 мм3.9 м/с27 %
    18:00Практически безоблачно+23°C52 %745 мм3.9 м/с27 %
    21:00Практически безоблачно+20°C63 %744 мм2.0 м/с2 %
  • 21июля
    Воскресенье
    +14°
    +25°
    Практически безоблачно
    ВремяПогодаТемператураВлажностьДавлениеВетер, м/сВероятность осадков
    00:00Ясно и безоблачно+17°C75 %744 мм1.8 м/с2 %
    03:00Ясно и безоблачно+15°C83 %744 мм1.7 м/с2 %
    06:00Ясно и безоблачно+14°C89 %744 мм1.3 м/с2 %
    09:00Ясно и безоблачно+20°C71 %744 мм0.8 м/с2 %
    12:00Ясно и безоблачно+23°C57 %744 мм1.8 м/с33 %
    15:00Практически безоблачно+24°C50 %744 мм2.6 м/с42 %
    18:00Практически безоблачно+25°C48 %743 мм2.1 м/с32 %
    21:00Практически безоблачно+23°C64 %743 мм0.8 м/с28 %
  • 22июля
    Понедельник
    +14°
    +26°
    Облачно с прояснениями
    ВремяПогодаТемператураВлажностьДавлениеВетер, м/сВероятность осадков
    00:00Ясно и безоблачно+18°C83 %743 мм1.8 м/с2 %
    03:00Ясно и безоблачно+16°C88 %743 мм1.9 м/с2 %
    06:00Ясно и безоблачно+15°C88 %743 мм1.6 м/с2 %
    09:00Ясно и безоблачно+21°C64 %744 мм1.2 м/с3 %
    12:00Ясно и безоблачно+24°C51 %744 мм1.1 м/с35 %
    15:00Облачно с прояснениями+26°C47 %744 мм1.3 м/с46 %
    18:00Практически безоблачно+25°C55 %744 мм2.4 м/с44 %
    21:00Ясно и безоблачно+22°C74 %744 мм1.4 м/с20 %
  • 23июля
    Вторник
    +16°
    +26°
    Небольшая облачность и лёгкий дождик
    ВремяПогодаТемператураВлажностьДавлениеВетер, м/сВероятность осадков
    00:00Ясно и безоблачно+18°C90 %744 мм1.7 м/с2 %
    03:00Ясно и безоблачно+16°C94 %744 мм1.8 м/с2 %
    06:00Ясно и безоблачно+16°C95 %744 мм1.1 м/с3 %
    09:00Ясно и безоблачно+21°C68 %744 мм0.9 м/с6 %
    12:00Практически безоблачно+24°C54 %744 мм0.1 м/с39 %
    15:00Небольшая облачность и лёгкий дождик+25°C48 %744 мм0.8 м/с50 %
    18:00Облачно с прояснениями+25°C46 %743 мм1.2 м/с46 %
    21:00Практически безоблачно+23°C64 %743 мм2.7 м/с37 %
Мы используем cookies
Соглашаюсь